Time;durP1;ratioP1;P1;durP2;ratioP2;P2;SDS_P1;SDS_P2;PMS_P1;PMS_P2;Temp;Humidity;BMP_temperature;BMP_pressure;BME280_temperature;BME280_humidity;BME280_pressure;Samples;Min_cycle;Max_cycle;Signal;HPM_P1;HPM_P2
2023/09/08 00:00:10;;;;;;;5.15;4.65;;;22.70;57.50;;;;;;5075304;28;20215;-81
2023/09/08 00:02:37;;;;;;;5.18;4.25;;;22.70;57.50;;;;;;5064412;28;20206;-81
2023/09/08 00:05:05;;;;;;;4.97;4.47;;;22.70;57.50;;;;;;5055339;28;20219;-81
2023/09/08 00:07:33;;;;;;;4.32;3.92;;;22.70;57.50;;;;;;5038071;28;20203;-81
2023/09/08 00:10:00;;;;;;;4.30;3.90;;;22.60;57.60;;;;;;5053760;28;20219;-81
2023/09/08 00:12:27;;;;;;;5.00;4.50;;;22.60;57.40;;;;;;5053532;28;20517;-81
2023/09/08 00:14:54;;;;;;;5.18;4.47;;;22.60;57.40;;;;;;5053494;28;20191;-81
2023/09/08 00:17:23;;;;;;;4.97;4.55;;;22.60;58.00;;;;;;5053558;28;20199;-81
2023/09/08 00:19:50;;;;;;;4.70;4.30;;;22.60;57.50;;;;;;5054180;28;20219;-81
2023/09/08 00:22:18;;;;;;;4.32;3.85;;;22.60;57.50;;;;;;5053601;28;20229;-81
2023/09/08 00:24:45;;;;;;;4.72;4.30;;;22.60;57.50;;;;;;5057784;28;20726;-81
2023/09/08 00:27:12;;;;;;;5.25;4.50;;;22.60;57.50;;;;;;5058124;28;20203;-81
2023/09/08 00:29:39;;;;;;;5.20;4.43;;;22.50;57.50;;;;;;5058250;28;20277;-81
2023/09/08 00:32:06;;;;;;;4.63;4.22;;;22.50;57.60;;;;;;5057663;28;20207;-81
2023/09/08 00:34:35;;;;;;;6.00;4.20;;;22.50;57.40;;;;;;5058157;28;20199;-81
2023/09/08 00:37:06;;;;;;;5.15;4.65;;;22.60;57.60;;;;;;5057427;28;20205;-81
2023/09/08 00:39:35;;;;;;;5.10;4.60;;;22.50;57.50;;;;;;5056825;28;20356;-81
2023/09/08 00:42:03;;;;;;;5.03;4.38;;;22.50;57.60;;;;;;5057955;28;20200;-81
2023/09/08 00:44:30;;;;;;;4.68;4.10;;;22.50;57.50;;;;;;5057323;28;20219;-81
2023/09/08 00:46:57;;;;;;;4.82;4.40;;;22.50;57.60;;;;;;5057591;28;20199;-80
2023/09/08 00:49:24;;;;;;;5.00;4.50;;;22.50;57.70;;;;;;5056538;28;20215;-80
2023/09/08 00:51:52;;;;;;;4.65;4.25;;;22.50;57.60;;;;;;5057101;28;20597;-81
2023/09/08 00:54:19;;;;;;;4.90;4.50;;;22.50;57.50;;;;;;5056466;28;20677;-81
2023/09/08 00:56:46;;;;;;;4.80;4.40;;;22.40;57.60;;;;;;5056248;28;20203;-81
2023/09/08 00:59:13;;;;;;;4.75;4.20;;;22.40;57.50;;;;;;5056200;28;20226;-80
2023/09/08 01:01:41;;;;;;;4.82;4.43;;;22.40;57.50;;;;;;5057668;28;20222;-80
2023/09/08 01:04:08;;;;;;;4.68;4.22;;;22.40;57.40;;;;;;5057349;28;20229;-80
2023/09/08 01:06:35;;;;;;;4.85;4.45;;;22.40;57.40;;;;;;5056610;28;20199;-80
2023/09/08 01:09:05;;;;;;;4.63;4.25;;;22.40;57.50;;;;;;5056316;28;20677;-80
2023/09/08 01:11:32;;;;;;;4.68;4.28;;;22.40;57.50;;;;;;5057442;28;20290;-81
2023/09/08 01:13:59;;;;;;;5.22;4.75;;;22.40;57.40;;;;;;5056574;28;20196;-81
2023/09/08 01:16:26;;;;;;;5.03;4.60;;;22.40;57.20;;;;;;5056218;28;20206;-81
2023/09/08 01:18:53;;;;;;;5.00;4.53;;;22.40;57.40;;;;;;5056380;28;20615;-80
2023/09/08 01:21:38;;;;;;;4.72;4.32;;;22.40;57.30;;;;;;5056255;28;20196;-80
2023/09/08 01:24:19;;;;;;;4.93;4.50;;;22.30;57.30;;;;;;5057167;28;20229;-80
2023/09/08 01:26:47;;;;;;;5.97;4.60;;;22.30;57.40;;;;;;5055992;28;20207;-80
2023/09/08 01:29:15;;;;;;;4.82;4.32;;;22.30;57.30;;;;;;5056102;28;20281;-80
2023/09/08 01:31:42;;;;;;;4.88;4.47;;;22.30;57.40;;;;;;5056076;28;20199;-80
2023/09/08 01:34:09;;;;;;;5.75;4.57;;;22.30;57.40;;;;;;5039455;28;20199;-80
2023/09/08 01:36:38;;;;;;;6.15;4.68;;;22.30;57.40;;;;;;5055594;28;20196;-80
2023/09/08 01:39:05;;;;;;;4.70;4.30;;;22.30;57.40;;;;;;5055697;28;20223;-80
2023/09/08 01:41:32;;;;;;;4.68;4.28;;;22.20;57.40;;;;;;5055599;28;20199;-80
2023/09/08 01:44:05;;;;;;;5.00;4.53;;;22.30;57.40;;;;;;5055448;28;20249;-80
2023/09/08 01:46:32;;;;;;;4.97;4.57;;;22.20;57.30;;;;;;5055625;28;20195;-80
2023/09/08 01:48:59;;;;;;;5.00;4.45;;;22.20;57.50;;;;;;5055509;28;20719;-80
2023/09/08 01:51:27;;;;;;;4.88;4.47;;;22.20;57.50;;;;;;5038652;28;20195;-80
2023/09/08 01:53:54;;;;;;;5.10;4.60;;;22.20;57.40;;;;;;5055481;28;20198;-80
2023/09/08 01:56:22;;;;;;;4.78;4.38;;;22.20;57.40;;;;;;5055416;28;20199;-80
2023/09/08 01:58:50;;;;;;;4.82;4.35;;;22.20;57.30;;;;;;5039119;28;20195;-80
2023/09/08 02:01:19;;;;;;;4.80;4.38;;;22.20;57.50;;;;;;5039221;28;20261;-80
2023/09/08 02:03:46;;;;;;;5.22;4.80;;;22.10;57.30;;;;;;5055268;28;20200;-80
2023/09/08 02:06:13;;;;;;;5.00;4.50;;;22.20;57.40;;;;;;5055390;28;20196;-80
2023/09/08 02:08:40;;;;;;;5.80;4.90;;;22.10;57.30;;;;;;5038971;28;20282;-81
2023/09/08 02:11:08;;;;;;;4.88;4.40;;;22.20;57.40;;;;;;5055591;28;20223;-81
2023/09/08 02:13:35;;;;;;;4.80;4.38;;;22.10;57.40;;;;;;5055505;28;20200;-81
2023/09/08 02:16:03;;;;;;;5.35;4.85;;;22.10;57.30;;;;;;5055675;28;20195;-80
2023/09/08 02:18:32;;;;;;;5.15;4.65;;;22.10;57.40;;;;;;5038736;28;20294;-80
2023/09/08 02:20:58;;;;;;;4.97;4.47;;;22.10;57.40;;;;;;5054727;28;20218;-80
2023/09/08 02:23:26;;;;;;;5.07;4.63;;;22.10;57.30;;;;;;5055186;28;20657;-80
2023/09/08 02:25:54;;;;;;;5.00;4.50;;;22.10;57.50;;;;;;5055290;28;20223;-80
2023/09/08 02:28:21;;;;;;;4.90;4.50;;;22.10;57.50;;;;;;5055376;28;20199;-80
2023/09/08 02:30:48;;;;;;;4.88;4.47;;;22.10;57.40;;;;;;5054956;28;20215;-80
2023/09/08 02:33:15;;;;;;;5.25;4.75;;;22.10;57.30;;;;;;5056978;28;20200;-79
2023/09/08 02:35:44;;;;;;;4.97;4.53;;;22.00;57.30;;;;;;5056380;28;20274;-81
2023/09/08 02:38:12;;;;;;;4.97;4.57;;;22.00;57.40;;;;;;5056558;28;20195;-81
2023/09/08 02:40:39;;;;;;;5.00;4.40;;;22.00;57.30;;;;;;5056034;28;20333;-81
2023/09/08 02:43:07;;;;;;;4.90;4.28;;;22.00;57.30;;;;;;5056456;28;20223;-81
2023/09/08 02:45:35;;;;;;;5.20;4.70;;;22.00;57.60;;;;;;5055673;28;20203;-81
2023/09/08 02:48:02;;;;;;;5.07;4.50;;;22.00;57.30;;;;;;5054792;28;20199;-81
2023/09/08 02:50:30;;;;;;;5.05;4.65;;;22.00;57.30;;;;;;5055986;28;20218;-81
2023/09/08 02:52:58;;;;;;;5.05;4.55;;;22.00;57.30;;;;;;5056059;28;20202;-81
2023/09/08 02:55:25;;;;;;;5.63;4.93;;;22.00;57.50;;;;;;5057601;28;20621;-81
2023/09/08 02:57:52;;;;;;;6.75;4.63;;;22.00;57.40;;;;;;5058326;28;20203;-80
2023/09/08 03:00:19;;;;;;;5.28;4.78;;;21.90;57.30;;;;;;5057691;28;20242;-79
2023/09/08 03:02:46;;;;;;;5.38;4.53;;;21.90;57.40;;;;;;5054764;28;20195;-79
2023/09/08 03:05:13;;;;;;;4.88;4.35;;;21.90;57.30;;;;;;5054101;28;20215;-79
2023/09/08 03:07:40;;;;;;;5.00;4.45;;;21.90;57.30;;;;;;5053987;28;20191;-79
2023/09/08 03:10:10;;;;;;;6.05;4.88;;;21.90;57.20;;;;;;5020905;28;20645;-81
2023/09/08 03:12:37;;;;;;;6.32;4.82;;;21.90;57.20;;;;;;5053887;28;20192;-81
2023/09/08 03:15:05;;;;;;;5.10;4.63;;;21.90;56.90;;;;;;5037915;28;20204;-80
2023/09/08 03:17:32;;;;;;;6.57;4.47;;;21.90;57.00;;;;;;5055062;28;20256;-80
2023/09/08 03:20:00;;;;;;;5.43;4.75;;;21.90;56.90;;;;;;5055375;28;20257;-80
2023/09/08 03:22:27;;;;;;;5.10;4.70;;;22.00;56.90;;;;;;5038582;28;20196;-80
2023/09/08 03:24:54;;;;;;;4.88;4.47;;;21.90;56.60;;;;;;5054974;28;20277;-80
2023/09/08 03:27:24;;;;;;;5.57;5.18;;;22.00;56.50;;;;;;5055734;28;20195;-81
2023/09/08 03:29:51;;;;;;;5.10;4.70;;;22.00;56.50;;;;;;5054314;28;20219;-81
2023/09/08 03:32:18;;;;;;;5.03;4.60;;;22.00;56.50;;;;;;5065301;28;20183;-81
2023/09/08 03:34:45;;;;;;;5.10;4.60;;;22.00;56.70;;;;;;5076922;28;20187;-81
2023/09/08 03:37:12;;;;;;;4.93;4.53;;;22.10;56.20;;;;;;5053935;28;20328;-80
2023/09/08 03:39:39;;;;;;;5.20;4.70;;;22.10;56.20;;;;;;5055483;28;20211;-81
2023/09/08 03:42:06;;;;;;;5.20;4.70;;;22.10;56.20;;;;;;5055586;28;20191;-81
2023/09/08 03:44:35;;;;;;;4.90;4.50;;;22.10;56.20;;;;;;5055511;28;20218;-81
2023/09/08 03:47:02;;;;;;;5.22;4.63;;;22.10;56.20;;;;;;5055181;28;20203;-80
2023/09/08 03:49:29;;;;;;;5.45;4.70;;;22.00;56.70;;;;;;5054784;28;20219;-81
2023/09/08 03:51:58;;;;;;;5.30;4.70;;;22.10;56.20;;;;;;5054957;28;20545;-81
2023/09/08 03:54:24;;;;;;;5.30;4.72;;;22.10;56.10;;;;;;5056968;28;20259;-81
2023/09/08 03:56:52;;;;;;;6.47;4.72;;;22.00;55.80;;;;;;5068407;28;20231;-81
2023/09/08 03:59:19;;;;;;;4.78;4.38;;;22.00;55.80;;;;;;5054874;28;20282;-80
2023/09/08 04:01:47;;;;;;;4.65;4.25;;;22.00;55.80;;;;;;5069889;28;20203;-80
2023/09/08 04:04:14;;;;;;;5.10;4.70;;;22.00;55.80;;;;;;5047873;28;20208;-81
2023/09/08 04:06:42;;;;;;;5.30;4.80;;;22.00;55.90;;;;;;5058840;28;20199;-80
2023/09/08 04:09:09;;;;;;;5.20;4.50;;;22.00;56.10;;;;;;5056870;28;20211;-80
2023/09/08 04:11:36;;;;;;;5.15;4.68;;;22.00;55.90;;;;;;5056615;28;20234;-80
2023/09/08 04:14:03;;;;;;;5.20;4.50;;;22.00;56.00;;;;;;5056576;28;20249;-80
2023/09/08 04:16:30;;;;;;;4.53;4.22;;;21.90;56.10;;;;;;5039989;28;20201;-81
2023/09/08 04:18:58;;;;;;;4.90;4.40;;;21.90;56.10;;;;;;5056331;28;20222;-81
2023/09/08 04:21:26;;;;;;;5.30;4.57;;;21.90;56.00;;;;;;5056858;28;20278;-80
2023/09/08 04:23:52;;;;;;;6.30;4.43;;;21.90;56.00;;;;;;5055686;28;20206;-80
2023/09/08 04:26:20;;;;;;;5.30;4.80;;;21.90;56.00;;;;;;5070552;22;20219;-79
2023/09/08 04:28:47;;;;;;;4.90;4.47;;;21.90;56.10;;;;;;5053065;28;20660;-79
2023/09/08 04:31:14;;;;;;;5.38;4.88;;;21.90;56.00;;;;;;5053328;28;20273;-79
2023/09/08 04:33:41;;;;;;;4.97;4.47;;;21.90;56.00;;;;;;5052879;28;20222;-78
2023/09/08 04:36:10;;;;;;;5.38;4.75;;;21.90;56.00;;;;;;5052937;28;20253;-78
2023/09/08 04:38:38;;;;;;;5.05;4.60;;;21.90;56.00;;;;;;5052776;28;20213;-78
2023/09/08 04:41:05;;;;;;;5.20;4.70;;;21.80;56.60;;;;;;5035912;28;20242;-78
2023/09/08 04:43:33;;;;;;;5.50;4.72;;;21.90;56.10;;;;;;5053036;28;20229;-77
2023/09/08 04:45:59;;;;;;;4.70;4.30;;;21.80;56.00;;;;;;5052522;28;20306;-77
2023/09/08 04:48:28;;;;;;;4.78;4.38;;;21.80;56.00;;;;;;5036196;28;20196;-77
2023/09/08 04:50:55;;;;;;;4.85;4.30;;;21.70;56.00;;;;;;5052485;28;20247;-77
2023/09/08 04:53:23;;;;;;;5.75;4.80;;;21.80;56.00;;;;;;5052259;28;20592;-77
2023/09/08 04:55:50;;;;;;;4.60;4.20;;;21.80;56.10;;;;;;5035960;28;20203;-77
2023/09/08 04:58:17;;;;;;;4.97;4.55;;;21.70;56.00;;;;;;5052420;28;20290;-77
2023/09/08 05:00:45;;;;;;;4.97;4.45;;;21.80;56.20;;;;;;5052294;28;20211;-77
2023/09/08 05:03:12;;;;;;;5.20;4.70;;;21.70;56.10;;;;;;5052168;28;20222;-77
2023/09/08 05:05:39;;;;;;;4.85;4.43;;;21.70;56.20;;;;;;5052152;28;20225;-77
2023/09/08 05:08:07;;;;;;;5.38;4.88;;;21.70;56.20;;;;;;5052253;28;20245;-77
2023/09/08 05:10:35;;;;;;;4.72;4.32;;;21.70;56.30;;;;;;5053453;28;20244;-77
2023/09/08 05:13:03;;;;;;;4.82;4.43;;;21.70;56.30;;;;;;5056654;28;20208;-77
2023/09/08 05:15:31;;;;;;;4.68;4.28;;;21.70;56.20;;;;;;5039767;28;20569;-77
2023/09/08 05:17:58;;;;;;;4.90;4.50;;;21.70;56.20;;;;;;5056282;28;20261;-79
2023/09/08 05:20:26;;;;;;;5.18;4.72;;;21.70;56.20;;;;;;5055803;28;20693;-79
2023/09/08 05:22:53;;;;;;;4.90;4.50;;;21.70;56.20;;;;;;5056261;28;20195;-79
2023/09/08 05:25:20;;;;;;;5.18;4.63;;;21.70;56.10;;;;;;5039109;28;20270;-79
2023/09/08 05:27:49;;;;;;;5.38;4.88;;;21.70;56.20;;;;;;5057050;28;20195;-79
2023/09/08 05:30:16;;;;;;;5.75;4.75;;;21.70;56.20;;;;;;5039995;28;20207;-79
2023/09/08 05:32:43;;;;;;;4.95;4.55;;;21.70;56.10;;;;;;5056746;28;20605;-79
2023/09/08 05:35:10;;;;;;;5.30;4.90;;;21.70;56.10;;;;;;5056464;28;20195;-77
2023/09/08 05:37:37;;;;;;;5.90;4.60;;;21.70;56.50;;;;;;5055411;28;20195;-77
2023/09/08 05:40:08;;;;;;;5.20;4.70;;;21.70;55.90;;;;;;5055477;28;20219;-77
2023/09/08 05:42:35;;;;;;;5.18;4.70;;;21.70;55.90;;;;;;5055925;28;20206;-78
2023/09/08 05:45:05;;;;;;;5.13;4.55;;;21.70;55.90;;;;;;5038733;28;20306;-78
2023/09/08 05:47:32;;;;;;;5.30;4.80;;;21.80;55.70;;;;;;5055333;28;20191;-77
2023/09/08 05:50:00;;;;;;;4.78;4.20;;;21.80;55.60;;;;;;5054750;28;20219;-76
2023/09/08 05:52:28;;;;;;;5.07;4.60;;;21.90;55.40;;;;;;5055246;28;20188;-76
2023/09/08 05:54:56;;;;;;;5.10;4.60;;;22.00;55.20;;;;;;5055209;28;20191;-76
2023/09/08 05:57:23;;;;;;;5.15;4.75;;;22.00;55.10;;;;;;5054887;28;20562;-77
2023/09/08 05:59:50;;;;;;;6.47;4.82;;;22.10;55.00;;;;;;5054803;28;20230;-76
2023/09/08 06:02:18;;;;;;;5.78;5.07;;;22.10;54.90;;;;;;5054855;28;20195;-77
2023/09/08 06:04:46;;;;;;;5.63;5.00;;;22.20;55.00;;;;;;5055101;28;20195;-76
2023/09/08 06:07:13;;;;;;;5.63;4.85;;;22.20;54.90;;;;;;5055084;28;20594;-76
2023/09/08 06:09:41;;;;;;;5.97;5.43;;;22.20;55.20;;;;;;5054579;28;20219;-76
2023/09/08 06:12:08;;;;;;;5.65;5.10;;;22.10;55.10;;;;;;5054822;28;20219;-75
2023/09/08 06:14:35;;;;;;;5.20;4.80;;;22.10;55.30;;;;;;5055183;28;20241;-75
2023/09/08 06:17:01;;;;;;;5.82;4.90;;;22.00;55.50;;;;;;5054934;28;20633;-75
2023/09/08 06:19:30;;;;;;;5.60;5.05;;;22.00;55.60;;;;;;5054671;28;20219;-76
2023/09/08 06:21:57;;;;;;;5.53;4.95;;;22.10;55.90;;;;;;5054231;28;20215;-76
2023/09/08 06:24:25;;;;;;;6.40;5.18;;;22.10;55.90;;;;;;5054788;28;20699;-76
2023/09/08 06:26:52;;;;;;;5.63;5.10;;;22.30;55.80;;;;;;5054185;28;20273;-76
2023/09/08 06:29:19;;;;;;;5.82;5.20;;;22.40;55.80;;;;;;5054955;28;20246;-76
2023/09/08 06:31:46;;;;;;;7.30;5.32;;;22.50;55.60;;;;;;5054212;28;20590;-76
2023/09/08 06:34:14;;;;;;;6.28;5.68;;;22.60;55.40;;;;;;5054112;28;20304;-77
2023/09/08 06:36:42;;;;;;;5.45;4.95;;;22.70;55.30;;;;;;5038098;28;20204;-77
2023/09/08 06:39:10;;;;;;;5.38;4.90;;;22.90;55.10;;;;;;5054498;28;20214;-78
2023/09/08 06:41:38;;;;;;;6.25;5.65;;;23.10;55.00;;;;;;5053955;28;20195;-78
2023/09/08 06:44:07;;;;;;;5.63;4.95;;;23.20;54.60;;;;;;5053937;28;20230;-78
2023/09/08 06:46:34;;;;;;;5.75;5.25;;;23.40;54.40;;;;;;5053955;28;20215;-78
2023/09/08 06:49:01;;;;;;;5.53;5.03;;;23.50;54.00;;;;;;5053913;28;20720;-78
2023/09/08 06:51:29;;;;;;;6.68;5.32;;;23.70;53.50;;;;;;5037518;28;20539;-78
2023/09/08 06:53:57;;;;;;;6.03;5.00;;;23.80;53.10;;;;;;5054986;28;20188;-78
2023/09/08 06:56:28;;;;;;;7.00;5.55;;;24.00;52.90;;;;;;5037726;28;20581;-78
2023/09/08 06:58:57;;;;;;;5.63;5.13;;;24.10;52.50;;;;;;5053678;28;20310;-78
2023/09/08 07:01:24;;;;;;;6.68;5.80;;;24.20;52.30;;;;;;5053641;28;20195;-78
2023/09/08 07:03:51;;;;;;;5.57;5.10;;;24.30;52.20;;;;;;5054209;28;20203;-78
2023/09/08 07:06:22;;;;;;;5.90;5.30;;;24.50;52.50;;;;;;5054753;28;20306;-78
2023/09/08 07:08:50;;;;;;;6.05;5.40;;;24.60;51.80;;;;;;5039579;28;20215;-78
2023/09/08 07:11:19;;;;;;;5.78;5.13;;;24.70;51.70;;;;;;5054241;28;20688;-78
2023/09/08 07:13:47;;;;;;;7.35;5.18;;;24.70;51.50;;;;;;5057363;28;20235;-78
2023/09/08 07:16:14;;;;;;;6.18;4.90;;;24.80;51.20;;;;;;5036984;28;20294;-78
2023/09/08 07:18:41;;;;;;;5.35;4.85;;;24.90;51.20;;;;;;5053988;28;20253;-78
2023/09/08 07:21:08;;;;;;;5.35;4.70;;;25.00;51.00;;;;;;5036978;28;20226;-78
2023/09/08 07:23:37;;;;;;;5.47;4.82;;;25.10;50.80;;;;;;5053410;28;20234;-78
2023/09/08 07:26:05;;;;;;;5.13;4.50;;;25.20;50.60;;;;;;5037095;28;20223;-78
2023/09/08 07:28:34;;;;;;;5.90;5.07;;;25.20;50.40;;;;;;5053583;28;20245;-78
2023/09/08 07:31:04;;;;;;;5.72;4.57;;;25.30;50.20;;;;;;5053942;28;20195;-78
2023/09/08 07:33:33;;;;;;;5.28;4.78;;;25.40;50.00;;;;;;5036701;28;20263;-78
2023/09/08 07:36:05;;;;;;;5.28;4.78;;;25.50;50.00;;;;;;5053745;28;20216;-78
2023/09/08 07:38:32;;;;;;;5.00;4.50;;;25.50;49.80;;;;;;5053256;28;20188;-78
2023/09/08 07:41:02;;;;;;;6.13;4.75;;;25.60;49.60;;;;;;5052958;28;20211;-78
2023/09/08 07:43:29;;;;;;;5.80;4.55;;;25.70;49.50;;;;;;5053606;28;20196;-78
2023/09/08 07:45:58;;;;;;;4.97;4.47;;;25.80;49.30;;;;;;5052920;28;20241;-78
2023/09/08 07:48:26;;;;;;;4.85;4.45;;;25.80;49.10;;;;;;5053049;28;20664;-78
2023/09/08 07:50:53;;;;;;;5.07;4.50;;;25.90;49.00;;;;;;5052661;28;20781;-78
2023/09/08 07:53:20;;;;;;;5.07;4.55;;;25.90;48.90;;;;;;5036438;28;20206;-78
2023/09/08 07:55:47;;;;;;;4.80;4.40;;;26.00;48.70;;;;;;5053943;28;20183;-78
2023/09/08 07:58:14;;;;;;;5.03;4.63;;;26.00;48.70;;;;;;5054013;28;20185;-78
2023/09/08 08:00:41;;;;;;;5.65;4.55;;;26.10;48.70;;;;;;5052570;28;20229;-78
2023/09/08 08:03:09;;;;;;;5.00;4.60;;;26.10;48.70;;;;;;5052570;28;20206;-78
2023/09/08 08:05:36;;;;;;;5.10;4.50;;;26.10;48.60;;;;;;5035798;28;20715;-78
2023/09/08 08:08:03;;;;;;;6.22;4.40;;;26.20;48.50;;;;;;5052872;28;20190;-78
2023/09/08 08:10:31;;;;;;;4.63;4.22;;;26.20;48.40;;;;;;5053903;28;20218;-78
2023/09/08 08:12:58;;;;;;;4.90;4.50;;;26.30;48.30;;;;;;5052682;28;20228;-78
2023/09/08 08:15:35;;;;;;;5.20;4.63;;;26.40;48.20;;;;;;5036673;28;20190;-79
2023/09/08 08:18:03;;;;;;;4.90;4.40;;;26.40;48.10;;;;;;5053648;28;20199;-79
2023/09/08 08:20:34;;;;;;;5.13;4.72;;;26.50;48.00;;;;;;5052583;28;20215;-79
2023/09/08 08:23:01;;;;;;;4.88;4.47;;;26.50;47.90;;;;;;5052663;28;20650;-79
2023/09/08 08:25:29;;;;;;;5.25;4.53;;;26.60;47.80;;;;;;5053348;28;20207;-79
2023/09/08 08:27:58;;;;;;;5.07;4.47;;;26.60;47.70;;;;;;5052699;28;20209;-79
2023/09/08 08:30:25;;;;;;;4.95;4.47;;;26.60;47.60;;;;;;5052816;28;20222;-79
2023/09/08 08:32:53;;;;;;;5.18;4.40;;;26.70;47.50;;;;;;5052564;28;20205;-79
2023/09/08 08:35:20;;;;;;;4.30;4.00;;;26.70;48.00;;;;;;5053173;28;20199;-79
2023/09/08 08:37:48;;;;;;;5.05;4.63;;;26.80;47.30;;;;;;5052467;28;20207;-79
2023/09/08 08:40:15;;;;;;;4.70;4.30;;;26.80;47.30;;;;;;5052319;28;20218;-79
2023/09/08 08:42:42;;;;;;;5.13;4.53;;;26.90;47.20;;;;;;5058297;28;20289;-79
2023/09/08 08:45:10;;;;;;;4.75;4.35;;;26.90;47.20;;;;;;5054535;28;20227;-80
2023/09/08 08:47:37;;;;;;;4.70;4.30;;;26.90;47.10;;;;;;5056299;28;20219;-80
2023/09/08 08:50:05;;;;;;;4.55;3.75;;;26.90;47.00;;;;;;5057158;28;20710;-80
2023/09/08 08:52:33;;;;;;;4.55;4.15;;;27.00;47.00;;;;;;5056896;28;20574;-80
2023/09/08 08:55:01;;;;;;;4.53;4.00;;;27.00;46.90;;;;;;5056892;28;20206;-80
2023/09/08 08:57:28;;;;;;;4.60;4.20;;;27.00;46.90;;;;;;5056234;28;20198;-80
2023/09/08 08:59:55;;;;;;;4.10;3.78;;;27.00;46.90;;;;;;5056637;28;20218;-80
2023/09/08 09:02:23;;;;;;;4.50;4.10;;;27.00;46.80;;;;;;5056916;28;20661;-80
2023/09/08 09:04:50;;;;;;;4.90;4.45;;;27.10;46.80;;;;;;5057811;28;20199;-80
2023/09/08 09:07:16;;;;;;;4.65;4.25;;;27.10;46.80;;;;;;5057131;28;20214;-80
2023/09/08 09:09:43;;;;;;;4.85;4.00;;;27.10;46.80;;;;;;5057676;28;20688;-79
2023/09/08 09:12:12;;;;;;;4.47;4.15;;;27.10;46.60;;;;;;5056835;28;20195;-79
2023/09/08 09:14:39;;;;;;;4.60;4.20;;;27.10;46.60;;;;;;5056578;28;20653;-79
2023/09/08 09:17:06;;;;;;;4.82;4.43;;;27.20;46.70;;;;;;5056315;28;20222;-78
2023/09/08 09:19:35;;;;;;;4.30;3.90;;;27.20;46.60;;;;;;5056083;28;20222;-78
2023/09/08 09:22:03;;;;;;;4.10;3.80;;;27.20;46.60;;;;;;5058734;28;20226;-78
2023/09/08 09:24:30;;;;;;;4.47;4.13;;;27.20;46.60;;;;;;5059707;28;20202;-78
2023/09/08 09:26:57;;;;;;;4.18;3.78;;;27.20;46.60;;;;;;5055854;28;20226;-78
2023/09/08 09:29:26;;;;;;;4.28;3.90;;;27.20;46.60;;;;;;5056030;28;20222;-77
2023/09/08 09:31:54;;;;;;;4.30;4.00;;;27.20;46.60;;;;;;5057057;28;20266;-77
2023/09/08 09:34:21;;;;;;;4.57;4.18;;;27.20;46.60;;;;;;5039220;28;20740;-77
2023/09/08 09:36:49;;;;;;;4.47;4.07;;;27.20;46.60;;;;;;5055555;28;20191;-77
2023/09/08 09:39:19;;;;;;;4.22;3.85;;;27.20;46.60;;;;;;5055710;28;20250;-77
2023/09/08 09:41:47;;;;;;;4.90;4.50;;;27.20;46.60;;;;;;5056143;28;20198;-77
2023/09/08 09:44:14;;;;;;;4.20;3.80;;;27.20;46.90;;;;;;5055646;28;20205;-77
2023/09/08 09:46:46;;;;;;;4.78;4.28;;;27.20;46.70;;;;;;5055784;28;20218;-79
2023/09/08 09:49:13;;;;;;;4.75;3.90;;;27.20;47.00;;;;;;5058379;28;20237;-79
2023/09/08 09:51:44;;;;;;;5.78;3.95;;;27.20;47.30;;;;;;5056883;28;20194;-79
2023/09/08 09:54:11;;;;;;;6.15;4.07;;;27.20;47.50;;;;;;5055413;28;20199;-78
2023/09/08 09:56:39;;;;;;;4.05;3.72;;;27.20;47.20;;;;;;5054921;28;20201;-78
2023/09/08 09:59:06;;;;;;;5.63;4.20;;;27.20;47.40;;;;;;5055300;28;20230;-78
2023/09/08 10:01:33;;;;;;;4.63;4.22;;;27.20;47.40;;;;;;5055552;28;20289;-78
2023/09/08 10:04:03;;;;;;;6.07;4.45;;;27.20;47.40;;;;;;5055768;28;20195;-78
2023/09/08 10:06:30;;;;;;;4.90;4.32;;;27.20;47.40;;;;;;5055626;28;20305;-79
2023/09/08 10:08:57;;;;;;;3.88;3.58;;;27.20;47.30;;;;;;5057020;28;20219;-80
2023/09/08 10:11:23;;;;;;;4.55;3.83;;;27.20;47.30;;;;;;5057993;28;20199;-81
2023/09/08 10:13:52;;;;;;;4.53;4.13;;;27.20;47.30;;;;;;5057459;28;20218;-80
2023/09/08 10:16:20;;;;;;;4.78;3.75;;;27.20;47.90;;;;;;5056798;28;20208;-79
2023/09/08 10:18:48;;;;;;;4.45;4.05;;;27.20;47.30;;;;;;5055632;28;20199;-79
2023/09/08 10:21:16;;;;;;;4.38;3.97;;;27.20;47.40;;;;;;5055084;28;20230;-79
2023/09/08 10:23:46;;;;;;;4.35;4.05;;;27.20;47.40;;;;;;5037964;28;20292;-78
2023/09/08 10:26:13;;;;;;;4.03;3.72;;;27.10;47.40;;;;;;5038561;28;20211;-81
2023/09/08 10:28:40;;;;;;;4.20;3.80;;;27.10;47.50;;;;;;5054650;28;20199;-81
2023/09/08 10:31:07;;;;;;;4.60;4.07;;;27.00;47.60;;;;;;5054290;28;20280;-81
2023/09/08 10:33:33;;;;;;;4.05;3.55;;;26.90;47.90;;;;;;5054577;28;20194;-81
2023/09/08 10:36:02;;;;;;;4.55;4.15;;;27.00;48.00;;;;;;5054381;28;20226;-81
2023/09/08 10:38:32;;;;;;;3.95;3.65;;;26.90;48.10;;;;;;5054553;28;20195;-82
2023/09/08 10:41:27;;;;;;;3.80;3.50;;;26.90;48.20;;;;;;5054925;28;20738;-82
2023/09/08 10:43:56;;;;;;;4.43;3.83;;;26.90;48.20;;;;;;5055093;28;20218;-82
2023/09/08 10:46:23;;;;;;;4.55;4.13;;;26.90;48.30;;;;;;5055432;28;20198;-82
2023/09/08 10:48:50;;;;;;;3.88;3.50;;;26.80;48.90;;;;;;5056717;28;20587;-82
2023/09/08 10:51:18;;;;;;;4.18;3.85;;;26.80;48.30;;;;;;5054766;28;20195;-82
2023/09/08 10:53:47;;;;;;;4.32;3.95;;;26.80;48.40;;;;;;5055033;28;20266;-82
2023/09/08 10:56:14;;;;;;;4.35;3.95;;;26.80;48.50;;;;;;5055725;28;20202;-81
2023/09/08 10:58:42;;;;;;;4.15;3.80;;;26.80;48.50;;;;;;5054896;28;20195;-82
2023/09/08 11:01:14;;;;;;;4.15;3.78;;;26.80;48.60;;;;;;5056368;28;20205;-82
2023/09/08 11:03:47;;;;;;;4.22;3.83;;;26.70;48.60;;;;;;5038620;28;20223;-82
2023/09/08 11:06:16;;;;;;;4.28;3.88;;;26.70;48.60;;;;;;5056776;28;20191;-82
2023/09/08 11:08:44;;;;;;;4.53;3.95;;;26.70;48.70;;;;;;5055199;28;20223;-82
2023/09/08 11:11:13;;;;;;;4.20;3.90;;;26.70;48.80;;;;;;5037992;28;20203;-82
2023/09/08 11:13:40;;;;;;;3.92;3.65;;;26.70;48.80;;;;;;5054258;28;20540;-82
2023/09/08 11:16:07;;;;;;;4.30;3.90;;;26.70;48.80;;;;;;5054749;28;20199;-82
2023/09/08 11:18:35;;;;;;;4.57;4.18;;;26.70;48.90;;;;;;5055109;28;20182;-82
2023/09/08 11:21:02;;;;;;;4.30;3.88;;;26.70;49.00;;;;;;5054645;28;20233;-82
2023/09/08 11:23:29;;;;;;;4.10;3.70;;;26.60;49.00;;;;;;5055246;28;20199;-82
2023/09/08 11:25:56;;;;;;;3.83;3.40;;;26.60;49.00;;;;;;5053640;28;20213;-82
2023/09/08 11:28:24;;;;;;;3.80;3.50;;;26.60;49.10;;;;;;5054653;28;20225;-82
2023/09/08 11:30:51;;;;;;;3.95;3.65;;;26.70;49.20;;;;;;5053432;28;20704;-82
2023/09/08 11:33:19;;;;;;;3.83;3.42;;;26.60;49.20;;;;;;5054354;28;20222;-82
2023/09/08 11:35:46;;;;;;;3.88;3.58;;;26.70;49.40;;;;;;5053312;28;20217;-82
2023/09/08 11:38:13;;;;;;;3.65;3.35;;;26.60;49.30;;;;;;5053569;28;20209;-82
2023/09/08 11:40:40;;;;;;;4.20;3.80;;;26.70;49.40;;;;;;5053226;28;20582;-82
2023/09/08 11:43:07;;;;;;;4.18;3.80;;;26.60;49.40;;;;;;5054233;28;20195;-82
2023/09/08 11:45:36;;;;;;;4.25;3.85;;;26.60;49.40;;;;;;5053565;28;20195;-81
2023/09/08 11:48:04;;;;;;;3.95;3.63;;;26.60;50.00;;;;;;5053476;28;20234;-81
2023/09/08 11:50:31;;;;;;;3.88;3.58;;;26.70;49.50;;;;;;5053430;28;20599;-81
2023/09/08 11:52:58;;;;;;;4.00;3.60;;;26.60;49.50;;;;;;5053527;28;20198;-81
2023/09/08 11:55:25;;;;;;;3.78;3.47;;;26.60;49.50;;;;;;5053730;28;20230;-81
2023/09/08 11:57:57;;;;;;;3.75;3.45;;;26.60;49.50;;;;;;5053446;28;20575;-81
2023/09/08 12:00:25;;;;;;;4.20;3.88;;;26.70;49.70;;;;;;5053332;28;20241;-81
2023/09/08 12:02:54;;;;;;;4.50;4.10;;;26.60;49.70;;;;;;5053338;28;20213;-81
2023/09/08 12:05:25;;;;;;;3.97;3.67;;;26.60;49.70;;;;;;5053603;28;20597;-80
2023/09/08 12:07:51;;;;;;;3.67;3.38;;;26.60;49.70;;;;;;5053000;28;20214;-80
2023/09/08 12:10:18;;;;;;;3.75;3.45;;;26.60;49.80;;;;;;5052999;28;20643;-80
2023/09/08 12:12:46;;;;;;;4.10;3.80;;;26.60;49.90;;;;;;5053487;28;20253;-80
2023/09/08 12:15:13;;;;;;;4.03;3.65;;;26.60;49.90;;;;;;5053434;28;20194;-80
2023/09/08 12:17:50;;;;;;;3.88;3.58;;;26.60;49.90;;;;;;5051438;28;20202;-80
2023/09/08 12:20:19;;;;;;;4.15;3.80;;;26.60;50.00;;;;;;5056469;28;20225;-80
2023/09/08 12:22:50;;;;;;;3.72;3.42;;;26.60;50.00;;;;;;5058876;28;20195;-80
2023/09/08 12:25:17;;;;;;;4.03;3.70;;;26.60;50.10;;;;;;5058183;28;20229;-80
2023/09/08 12:27:45;;;;;;;4.65;3.70;;;26.60;50.10;;;;;;5057796;28;20684;-80
2023/09/08 12:30:20;;;;;;;4.43;4.03;;;26.60;50.20;;;;;;5057817;28;20230;-80
2023/09/08 12:32:49;;;;;;;4.30;3.90;;;26.60;50.20;;;;;;5057422;28;20190;-80
2023/09/08 12:35:25;;;;;;;3.70;3.40;;;26.60;50.30;;;;;;5057666;28;20677;-80
2023/09/08 12:37:58;;;;;;;4.32;3.92;;;26.60;50.30;;;;;;5059308;28;20548;-80
2023/09/08 12:40:25;;;;;;;3.75;3.45;;;26.60;50.40;;;;;;5060198;28;20215;-80
2023/09/08 12:42:53;;;;;;;3.90;3.60;;;26.60;50.50;;;;;;5058310;28;20248;-81
2023/09/08 12:45:20;;;;;;;3.67;3.38;;;26.50;50.50;;;;;;5056865;28;20705;-81
2023/09/08 12:47:47;;;;;;;4.00;3.60;;;26.50;50.60;;;;;;5057608;28;20309;-81
2023/09/08 12:50:15;;;;;;;3.67;3.38;;;26.50;50.60;;;;;;5057799;28;20665;-81